createdAt,value
2023-05-06T00:00:22.438Z,21.60
2023-05-06T00:00:54.923Z,19.70
2023-05-06T00:01:27.455Z,19.70
2023-05-06T00:01:59.911Z,20.10
2023-05-06T00:02:32.471Z,23.60
2023-05-06T00:03:05.703Z,25.10
2023-05-06T00:03:38.145Z,19.80
2023-05-06T00:04:10.531Z,17.70
2023-05-06T00:04:42.972Z,19.10
2023-05-06T00:05:15.431Z,20.40
2023-05-06T00:05:47.877Z,21.60
2023-05-06T00:06:20.321Z,18.60
2023-05-06T00:06:52.787Z,17.90
2023-05-06T00:07:25.259Z,18.50
2023-05-06T00:07:57.741Z,18.90
2023-05-06T00:08:30.182Z,20.90
2023-05-06T00:09:02.694Z,19.00
2023-05-06T00:09:35.144Z,17.20
2023-05-06T00:10:07.576Z,19.00
2023-05-06T00:10:40.025Z,21.20
2023-05-06T00:11:12.467Z,19.70
2023-05-06T00:11:44.921Z,17.00
2023-05-06T00:12:17.356Z,18.80
2023-05-06T00:12:49.904Z,18.40
2023-05-06T00:13:22.314Z,17.70
2023-05-06T00:13:54.728Z,18.00
2023-05-06T00:14:27.228Z,19.40
2023-05-06T00:14:59.707Z,19.00
2023-05-06T00:15:32.383Z,18.90
2023-05-06T00:16:04.705Z,19.80
2023-05-06T00:16:37.134Z,21.20
2023-05-06T00:17:09.561Z,22.50
2023-05-06T00:17:42.078Z,20.20
2023-05-06T00:18:14.477Z,20.70
2023-05-06T00:18:46.902Z,18.60
2023-05-06T00:19:19.424Z,19.40
2023-05-06T00:19:51.885Z,20.00
2023-05-06T00:20:24.342Z,19.60
2023-05-06T00:20:56.838Z,18.20
2023-05-06T00:21:29.289Z,18.80
2023-05-06T00:22:01.738Z,19.20
2023-05-06T00:22:34.205Z,18.60
2023-05-06T00:23:06.677Z,18.60
2023-05-06T00:23:39.097Z,18.90
2023-05-06T00:24:11.524Z,18.10
2023-05-06T00:24:43.996Z,16.60
2023-05-06T00:25:16.477Z,17.60
2023-05-06T00:25:48.913Z,20.30
2023-05-06T00:26:21.431Z,18.90
2023-05-06T00:26:53.882Z,20.50
2023-05-06T00:27:26.376Z,18.90
2023-05-06T00:27:58.798Z,16.80
2023-05-06T00:28:31.286Z,16.50
2023-05-06T00:29:03.760Z,18.10
2023-05-06T00:29:36.223Z,17.60
2023-05-06T00:30:08.666Z,16.90
2023-05-06T00:30:41.184Z,16.90
2023-05-06T00:31:13.658Z,19.50
2023-05-06T00:31:46.165Z,18.60
2023-05-06T00:32:18.590Z,19.30
2023-05-06T00:32:51.135Z,19.50
2023-05-06T00:33:23.513Z,20.30
2023-05-06T00:33:55.970Z,21.90
2023-05-06T00:34:28.447Z,17.40
2023-05-06T00:35:00.893Z,17.70
2023-05-06T00:35:33.397Z,15.70
2023-05-06T00:36:05.843Z,17.40
2023-05-06T00:36:38.324Z,20.00
2023-05-06T00:37:10.805Z,24.90
2023-05-06T00:37:43.290Z,21.60
2023-05-06T00:38:15.795Z,18.60
2023-05-06T00:38:48.244Z,19.30
2023-05-06T00:39:20.711Z,20.00
2023-05-06T00:39:53.141Z,19.90
2023-05-06T00:40:25.601Z,18.00
2023-05-06T00:40:58.055Z,21.60
2023-05-06T00:41:30.522Z,22.60
2023-05-06T00:42:03.002Z,17.70
2023-05-06T00:42:35.462Z,18.30
2023-05-06T00:43:07.936Z,18.10
2023-05-06T00:43:40.433Z,19.30
2023-05-06T00:44:12.916Z,18.80
2023-05-06T00:44:45.409Z,19.20
2023-05-06T00:45:17.870Z,22.70
2023-05-06T00:45:50.404Z,21.70
2023-05-06T00:46:22.962Z,17.60
2023-05-06T00:46:55.337Z,17.80
2023-05-06T00:47:27.836Z,17.50
2023-05-06T00:48:00.369Z,20.10
2023-05-06T00:48:32.761Z,22.00
2023-05-06T00:49:05.218Z,22.00
2023-05-06T00:49:37.690Z,21.40
2023-05-06T00:50:10.169Z,18.30
2023-05-06T00:50:42.646Z,15.60
2023-05-06T00:51:15.101Z,16.80
2023-05-06T00:51:47.606Z,18.20
2023-05-06T00:52:20.090Z,17.60
2023-05-06T00:52:52.542Z,19.40
2023-05-06T00:53:25.001Z,19.30
2023-05-06T00:53:57.473Z,16.20
2023-05-06T00:54:30.037Z,17.30
2023-05-06T00:55:02.382Z,19.80
2023-05-06T00:55:34.843Z,18.00
2023-05-06T00:56:07.324Z,16.70
2023-05-06T00:56:39.817Z,16.70
2023-05-06T00:57:12.296Z,18.90
2023-05-06T00:57:44.753Z,21.70
2023-05-06T00:58:17.240Z,20.10
2023-05-06T00:58:49.754Z,18.00
2023-05-06T00:59:22.243Z,16.60
2023-05-06T00:59:54.704Z,15.10
2023-05-06T01:00:27.188Z,27.00
2023-05-06T01:00:59.636Z,25.90
2023-05-06T01:01:32.126Z,17.40
2023-05-06T01:02:04.552Z,17.40
2023-05-06T01:02:46.427Z,20.10
2023-05-06T01:03:09.584Z,22.00
2023-05-06T01:03:42.172Z,21.30
2023-05-06T01:04:14.475Z,18.20
2023-05-06T01:04:47.009Z,20.70
2023-05-06T01:05:19.457Z,15.80
2023-05-06T01:05:51.947Z,14.80
2023-05-06T01:06:24.443Z,19.60
2023-05-06T01:06:56.920Z,23.10
2023-05-06T01:07:29.406Z,23.90
2023-05-06T01:08:01.885Z,21.50
2023-05-06T01:08:34.385Z,23.90
2023-05-06T01:09:06.849Z,23.70
2023-05-06T01:09:39.363Z,18.10
2023-05-06T01:10:11.822Z,21.90
2023-05-06T01:10:44.276Z,24.00
2023-05-06T01:11:16.706Z,23.70
2023-05-06T01:11:49.167Z,26.70
2023-05-06T01:12:21.651Z,22.80
2023-05-06T01:12:54.159Z,25.90
2023-05-06T01:13:26.596Z,26.10
2023-05-06T01:13:59.078Z,22.20
2023-05-06T01:14:31.537Z,26.10
2023-05-06T01:15:04.029Z,27.40
2023-05-06T01:15:36.503Z,29.30
2023-05-06T01:16:08.975Z,26.10
2023-05-06T01:16:41.531Z,23.00
2023-05-06T01:17:14.071Z,21.10
2023-05-06T01:17:46.551Z,24.20
2023-05-06T01:18:18.921Z,25.30
2023-05-06T01:18:51.416Z,25.20
2023-05-06T01:19:23.957Z,24.00
2023-05-06T01:19:56.486Z,22.10
2023-05-06T01:20:28.974Z,22.40
2023-05-06T01:21:01.470Z,22.50
2023-05-06T01:21:34.001Z,27.00
2023-05-06T01:22:06.468Z,32.80
2023-05-06T01:22:38.956Z,29.80
2023-05-06T01:23:11.450Z,28.30
2023-05-06T01:23:43.913Z,26.80
2023-05-06T01:24:16.369Z,26.90
2023-05-06T01:24:48.844Z,27.20
2023-05-06T01:25:21.414Z,24.30
2023-05-06T01:25:53.847Z,23.60
2023-05-06T01:26:26.367Z,28.10
2023-05-06T01:26:58.809Z,25.10
2023-05-06T01:27:31.296Z,21.30
2023-05-06T01:28:03.827Z,26.20
2023-05-06T01:28:36.316Z,26.10
2023-05-06T01:29:08.779Z,22.60
2023-05-06T01:29:41.326Z,24.50
2023-05-06T01:30:13.799Z,25.10
2023-05-06T01:30:46.307Z,22.70
2023-05-06T01:31:18.786Z,23.20
2023-05-06T01:31:51.190Z,22.40
2023-05-06T01:32:23.709Z,26.10
2023-05-06T01:32:56.179Z,23.40
2023-05-06T01:33:28.618Z,21.60
2023-05-06T01:34:01.107Z,23.30
2023-05-06T01:34:33.601Z,23.30
2023-05-06T01:35:06.093Z,21.60
2023-05-06T01:35:38.522Z,25.80
2023-05-06T01:36:10.961Z,25.50
2023-05-06T01:36:43.456Z,25.90
2023-05-06T01:37:15.974Z,25.30
2023-05-06T01:37:48.513Z,22.90
2023-05-06T01:38:20.984Z,22.70
2023-05-06T01:38:53.455Z,27.00
2023-05-06T01:39:25.955Z,25.40
2023-05-06T01:39:58.438Z,21.10
2023-05-06T01:40:30.897Z,24.40
2023-05-06T01:41:03.366Z,27.90
2023-05-06T01:41:35.865Z,23.70
2023-05-06T01:42:08.347Z,25.10
2023-05-06T01:42:40.831Z,25.40
2023-05-06T01:43:13.320Z,23.90
2023-05-06T01:43:45.763Z,24.70
2023-05-06T01:44:18.234Z,20.20
2023-05-06T01:44:50.697Z,18.40
2023-05-06T01:45:23.148Z,19.90
2023-05-06T01:45:55.607Z,19.40
2023-05-06T01:46:28.076Z,21.50
2023-05-06T01:47:00.509Z,26.40
2023-05-06T01:47:33.029Z,24.00
2023-05-06T01:48:05.528Z,19.40
2023-05-06T01:48:37.932Z,20.30
2023-05-06T01:49:10.385Z,20.00
2023-05-06T01:49:42.836Z,19.40
2023-05-06T01:50:15.356Z,23.90
2023-05-06T01:50:47.854Z,23.50
2023-05-06T01:51:20.336Z,17.10
2023-05-06T01:51:52.825Z,19.80
2023-05-06T01:52:25.281Z,20.90
2023-05-06T01:52:57.732Z,19.50
2023-05-06T01:53:30.203Z,21.50
2023-05-06T01:54:02.669Z,20.70
2023-05-06T01:54:35.151Z,18.40
2023-05-06T01:55:08.032Z,20.60
2023-05-06T01:55:40.078Z,22.70
2023-05-06T01:56:12.571Z,19.40
2023-05-06T01:56:45.034Z,17.10
2023-05-06T01:57:17.514Z,19.50
2023-05-06T01:57:49.974Z,19.20
2023-05-06T01:58:22.510Z,22.20
2023-05-06T01:58:54.972Z,22.40
2023-05-06T01:59:28.883Z,21.00
2023-05-06T01:59:59.939Z,23.10
2023-05-06T02:00:32.517Z,19.60
2023-05-06T02:01:04.978Z,19.60
2023-05-06T02:01:37.469Z,20.60
2023-05-06T02:02:09.995Z,20.00
2023-05-06T02:02:42.537Z,19.30
2023-05-06T02:03:15.055Z,19.50
2023-05-06T02:03:47.489Z,18.20
2023-05-06T02:04:19.813Z,21.80
2023-05-06T02:04:52.289Z,28.10
2023-05-06T02:05:24.749Z,28.30
2023-05-06T02:05:57.252Z,26.80
2023-05-06T02:06:29.761Z,23.20
2023-05-06T02:07:02.222Z,26.40
2023-05-06T02:07:34.685Z,27.60
2023-05-06T02:08:07.194Z,22.40
2023-05-06T02:08:39.682Z,22.70
2023-05-06T02:09:12.152Z,24.10
2023-05-06T02:09:44.665Z,22.60
2023-05-06T02:10:17.110Z,23.60
2023-05-06T02:10:49.700Z,27.10
2023-05-06T02:11:22.154Z,29.30
2023-05-06T02:11:54.651Z,31.90
2023-05-06T02:12:27.153Z,27.40
2023-05-06T02:12:59.669Z,25.70
2023-05-06T02:13:32.139Z,24.90
2023-05-06T02:14:04.738Z,25.20
2023-05-06T02:14:37.258Z,25.90
2023-05-06T02:15:09.895Z,26.50
2023-05-06T02:15:42.210Z,24.00
2023-05-06T02:16:14.733Z,24.20
2023-05-06T02:16:47.171Z,24.60
2023-05-06T02:17:19.642Z,25.40
2023-05-06T02:17:52.124Z,23.50
2023-05-06T02:18:24.570Z,22.40
2023-05-06T02:18:57.082Z,22.10
2023-05-06T02:19:29.556Z,24.50
2023-05-06T02:20:02.005Z,22.80
2023-05-06T02:20:34.550Z,27.70
2023-05-06T02:21:07.059Z,34.70
2023-05-06T02:21:39.554Z,35.60
2023-05-06T02:22:12.015Z,37.80
2023-05-06T02:22:44.486Z,58.70
2023-05-06T02:23:16.933Z,84.70
2023-05-06T02:23:49.481Z,95.20
2023-05-06T02:24:22.021Z,104.40
2023-05-06T02:24:54.482Z,104.90
2023-05-06T02:25:26.951Z,105.40
2023-05-06T02:25:59.461Z,110.80
2023-05-06T02:26:31.966Z,114.90
2023-05-06T02:27:04.524Z,104.80
2023-05-06T02:27:37.007Z,94.50
2023-05-06T02:28:09.484Z,96.00
2023-05-06T02:28:41.991Z,94.50
2023-05-06T02:29:14.481Z,89.30
2023-05-06T02:29:46.981Z,110.80
2023-05-06T02:30:19.443Z,111.90
2023-05-06T02:30:51.914Z,97.80
2023-05-06T02:31:24.396Z,96.40
2023-05-06T02:31:56.977Z,88.00
2023-05-06T02:32:29.398Z,82.70
2023-05-06T02:33:01.861Z,66.70
2023-05-06T02:33:34.327Z,54.80
2023-05-06T02:34:06.794Z,48.70
2023-05-06T02:34:39.284Z,41.30
2023-05-06T02:35:11.922Z,37.80
2023-05-06T02:35:44.250Z,31.30
2023-05-06T02:36:16.708Z,27.30
2023-05-06T02:36:49.190Z,25.90
2023-05-06T02:37:21.721Z,27.10
2023-05-06T02:37:54.228Z,25.00
2023-05-06T02:38:26.669Z,23.80
2023-05-06T02:38:59.150Z,21.50
2023-05-06T02:39:31.613Z,20.70
2023-05-06T02:40:04.080Z,24.00
2023-05-06T02:40:36.546Z,26.50
2023-05-06T02:41:09.011Z,27.00
2023-05-06T02:41:41.497Z,31.50
2023-05-06T02:42:14.082Z,28.30
2023-05-06T02:42:46.614Z,26.80
2023-05-06T02:43:18.998Z,28.30
2023-05-06T02:43:51.452Z,24.80
2023-05-06T02:44:23.940Z,20.00
2023-05-06T02:44:56.430Z,19.40
2023-05-06T02:45:28.920Z,21.30
2023-05-06T02:46:01.389Z,20.30
2023-05-06T02:46:33.793Z,19.00
2023-05-06T02:47:06.296Z,18.90
2023-05-06T02:47:38.742Z,19.20
2023-05-06T02:48:11.226Z,16.30
2023-05-06T02:48:43.675Z,16.90
2023-05-06T02:49:16.165Z,20.50
2023-05-06T02:49:48.647Z,20.90
2023-05-06T02:50:21.147Z,19.60
2023-05-06T02:50:53.618Z,22.20
2023-05-06T02:51:26.157Z,22.60
2023-05-06T02:51:58.642Z,19.70
2023-05-06T02:52:31.164Z,15.60
2023-05-06T02:53:03.670Z,17.00
2023-05-06T02:53:36.121Z,19.00
2023-05-06T02:54:08.556Z,21.80
2023-05-06T02:54:41.026Z,20.60
2023-05-06T02:55:13.470Z,17.00
2023-05-06T02:55:45.912Z,16.10
2023-05-06T02:56:18.453Z,19.10
2023-05-06T02:56:50.931Z,19.60
2023-05-06T02:57:23.395Z,16.70
2023-05-06T02:57:55.890Z,18.50
2023-05-06T02:58:28.345Z,17.00
2023-05-06T02:59:00.870Z,17.20
2023-05-06T02:59:33.323Z,20.20
2023-05-06T03:00:05.777Z,16.80
2023-05-06T03:00:38.254Z,16.00
2023-05-06T03:01:10.785Z,17.40
2023-05-06T03:01:43.247Z,15.70
2023-05-06T03:02:15.754Z,17.50
2023-05-06T03:02:48.275Z,18.70
2023-05-06T03:03:20.626Z,21.40
2023-05-06T03:03:53.145Z,20.20
2023-05-06T03:04:25.617Z,18.50
2023-05-06T03:04:58.031Z,19.60
2023-05-06T03:05:30.535Z,18.70
2023-05-06T03:06:03.040Z,18.40
2023-05-06T03:06:35.536Z,17.70
2023-05-06T03:07:08.118Z,20.80
2023-05-06T03:07:40.568Z,29.10
2023-05-06T03:08:13.107Z,32.90
2023-05-06T03:08:45.564Z,32.20
2023-05-06T03:09:18.045Z,35.80
2023-05-06T03:09:50.509Z,36.10
2023-05-06T03:10:22.974Z,32.20
2023-05-06T03:10:55.472Z,35.10
2023-05-06T03:11:27.932Z,37.20
2023-05-06T03:12:00.398Z,54.90
2023-05-06T03:12:32.960Z,52.10
2023-05-06T03:13:05.427Z,55.40
2023-05-06T03:13:37.825Z,76.10
2023-05-06T03:14:10.305Z,60.10
2023-05-06T03:14:42.994Z,38.00
2023-05-06T03:15:15.374Z,40.80
2023-05-06T03:15:47.844Z,30.50
2023-05-06T03:16:20.411Z,34.70
2023-05-06T03:16:52.906Z,39.90
2023-05-06T03:17:25.289Z,40.50
2023-05-06T03:17:57.792Z,52.90
2023-05-06T03:18:30.179Z,48.50
2023-05-06T03:19:02.646Z,35.90
2023-05-06T03:19:35.116Z,31.80
2023-05-06T03:20:07.654Z,39.40
2023-05-06T03:20:40.155Z,37.40
2023-05-06T03:21:12.658Z,38.70
2023-05-06T03:21:45.106Z,55.10
2023-05-06T03:22:17.545Z,56.00
2023-05-06T03:22:50.040Z,35.10
2023-05-06T03:23:22.567Z,49.20
2023-05-06T03:23:55.020Z,52.00
2023-05-06T03:24:27.546Z,48.40
2023-05-06T03:25:00.026Z,48.90
2023-05-06T03:25:32.520Z,68.20
2023-05-06T03:26:04.990Z,48.50
2023-05-06T03:26:37.488Z,50.90
2023-05-06T03:27:09.972Z,57.50
2023-05-06T03:27:42.467Z,64.00
2023-05-06T03:28:14.931Z,62.80
2023-05-06T03:28:47.351Z,52.90
2023-05-06T03:29:19.837Z,37.80
2023-05-06T03:29:52.340Z,48.50
2023-05-06T03:30:24.823Z,47.50
2023-05-06T03:30:57.287Z,53.20
2023-05-06T03:31:29.808Z,61.70
2023-05-06T03:32:02.275Z,62.10
2023-05-06T03:32:34.846Z,56.40
2023-05-06T03:33:07.355Z,58.30
2023-05-06T03:33:39.809Z,94.10
2023-05-06T03:34:12.294Z,56.30
2023-05-06T03:34:44.777Z,46.90
2023-05-06T03:35:17.256Z,56.30
2023-05-06T03:35:49.747Z,67.90
2023-05-06T03:36:22.277Z,66.70
2023-05-06T03:36:54.764Z,55.30
2023-05-06T03:37:27.223Z,57.40
2023-05-06T03:37:59.683Z,60.70
2023-05-06T03:38:32.146Z,61.20
2023-05-06T03:39:04.617Z,64.90
2023-05-06T03:39:37.201Z,46.80
2023-05-06T03:40:09.708Z,55.00
2023-05-06T03:40:42.199Z,60.90
2023-05-06T03:41:14.689Z,54.40
2023-05-06T03:41:47.143Z,46.90
2023-05-06T03:42:19.638Z,34.90
2023-05-06T03:42:52.141Z,32.80
2023-05-06T03:43:24.668Z,47.90
2023-05-06T03:43:57.168Z,59.70
2023-05-06T03:44:29.667Z,54.90
2023-05-06T03:45:02.126Z,47.20
2023-05-06T03:45:34.608Z,43.00
2023-05-06T03:46:07.085Z,40.60
2023-05-06T03:46:39.674Z,36.50
2023-05-06T03:47:12.031Z,44.80
2023-05-06T03:47:44.547Z,37.30
2023-05-06T03:48:17.027Z,36.20
2023-05-06T03:48:49.554Z,39.50
2023-05-06T03:49:22.013Z,33.60
2023-05-06T03:49:54.476Z,45.00
2023-05-06T03:50:27.033Z,49.40
2023-05-06T03:50:59.512Z,35.80
2023-05-06T03:51:32.060Z,35.70
2023-05-06T03:52:04.547Z,54.20
2023-05-06T03:52:37.058Z,55.20
2023-05-06T03:53:09.586Z,34.80
2023-05-06T03:53:42.084Z,43.30
2023-05-06T03:54:14.555Z,56.30
2023-05-06T03:54:47.082Z,53.10
2023-05-06T03:55:19.534Z,42.50
2023-05-06T03:55:51.981Z,37.20
2023-05-06T03:56:24.451Z,36.60
2023-05-06T03:56:56.975Z,32.10
2023-05-06T03:57:29.467Z,39.90
2023-05-06T03:58:01.975Z,41.00
2023-05-06T03:58:34.411Z,32.10
2023-05-06T03:59:06.857Z,37.50
2023-05-06T03:59:39.359Z,43.40
2023-05-06T04:00:11.842Z,43.30
2023-05-06T04:00:44.310Z,37.30
2023-05-06T04:01:16.759Z,46.10
2023-05-06T04:01:49.345Z,49.80
2023-05-06T04:02:21.804Z,39.00
2023-05-06T04:02:54.233Z,36.20
2023-05-06T04:03:26.688Z,22.40
2023-05-06T04:03:59.296Z,29.10
2023-05-06T04:04:31.726Z,30.70
2023-05-06T04:05:04.196Z,28.60
2023-05-06T04:05:36.676Z,42.50
2023-05-06T04:06:09.158Z,51.20
2023-05-06T04:06:41.619Z,40.10
2023-05-06T04:07:14.135Z,34.00
2023-05-06T04:07:46.613Z,25.10
2023-05-06T04:08:19.119Z,49.90
2023-05-06T04:08:51.603Z,48.20
2023-05-06T04:09:24.100Z,39.30
2023-05-06T04:09:56.619Z,38.70
2023-05-06T04:10:29.096Z,28.00
2023-05-06T04:11:01.558Z,25.40
2023-05-06T04:11:34.074Z,24.30
2023-05-06T04:12:06.558Z,27.70
2023-05-06T04:12:39.031Z,42.80
2023-05-06T04:13:11.649Z,48.10
2023-05-06T04:13:44.096Z,41.60
2023-05-06T04:14:16.590Z,34.40
2023-05-06T04:14:49.119Z,52.20
2023-05-06T04:15:21.679Z,47.80
2023-05-06T04:15:54.272Z,36.10
2023-05-06T04:16:35.192Z,38.70
2023-05-06T04:17:07.682Z,53.10
2023-05-06T04:17:40.145Z,42.30
2023-05-06T04:18:12.638Z,39.00
2023-05-06T04:18:45.108Z,36.50
2023-05-06T04:19:17.588Z,25.40
2023-05-06T04:19:50.053Z,34.90
2023-05-06T04:20:22.536Z,39.80
2023-05-06T04:20:55.050Z,34.40
2023-05-06T04:21:27.542Z,51.40
2023-05-06T04:22:00.011Z,63.10
2023-05-06T04:22:32.482Z,59.60
2023-05-06T04:23:04.952Z,36.00
2023-05-06T04:23:37.485Z,43.80
2023-05-06T04:24:09.932Z,50.40
2023-05-06T04:24:42.489Z,43.80
2023-05-06T04:25:14.987Z,37.70
2023-05-06T04:25:47.517Z,40.20
2023-05-06T04:26:19.996Z,41.80
2023-05-06T04:26:52.430Z,36.90
2023-05-06T04:27:24.861Z,40.60
2023-05-06T04:27:57.411Z,51.20
2023-05-06T04:28:29.866Z,39.40
2023-05-06T04:29:02.373Z,47.30
2023-05-06T04:29:34.816Z,49.10
2023-05-06T04:30:07.314Z,50.10
2023-05-06T04:30:39.788Z,68.20
2023-05-06T04:31:12.310Z,48.30
2023-05-06T04:31:44.788Z,43.70
2023-05-06T04:32:17.213Z,49.50
2023-05-06T04:32:49.687Z,46.10
2023-05-06T04:33:22.146Z,49.80
2023-05-06T04:33:54.619Z,45.80
2023-05-06T04:34:27.066Z,40.40
2023-05-06T04:34:59.526Z,42.00
2023-05-06T04:35:31.989Z,53.20
2023-05-06T04:36:04.443Z,58.70
2023-05-06T04:36:37.977Z,60.60
2023-05-06T04:37:09.368Z,47.80
2023-05-06T04:37:41.844Z,52.50
2023-05-06T04:38:14.310Z,53.60
2023-05-06T04:38:46.820Z,46.60
2023-05-06T04:39:19.292Z,49.80
2023-05-06T04:39:51.777Z,44.20
2023-05-06T04:40:24.235Z,38.00
2023-05-06T04:40:56.730Z,32.70
2023-05-06T04:41:29.199Z,41.10
2023-05-06T04:42:01.660Z,42.90
2023-05-06T04:42:34.116Z,44.50
2023-05-06T04:43:06.588Z,40.50
2023-05-06T04:43:39.051Z,44.70
2023-05-06T04:44:11.518Z,48.80
2023-05-06T04:44:44.048Z,44.70
2023-05-06T04:45:16.511Z,53.30
2023-05-06T04:45:48.979Z,46.80
2023-05-06T04:46:21.521Z,55.90
2023-05-06T04:46:53.892Z,51.90
2023-05-06T04:47:26.419Z,32.50
2023-05-06T04:47:58.855Z,36.50
2023-05-06T04:48:31.244Z,52.00
2023-05-06T04:49:03.777Z,58.60
2023-05-06T04:49:36.221Z,46.50
2023-05-06T04:50:08.663Z,38.30
2023-05-06T04:50:41.157Z,44.60
2023-05-06T04:51:13.592Z,55.20
2023-05-06T04:51:46.032Z,71.50
2023-05-06T04:52:18.522Z,64.10
2023-05-06T04:52:51.058Z,52.20
2023-05-06T04:53:23.495Z,52.80
2023-05-06T04:53:56.041Z,51.00
2023-05-06T04:54:28.478Z,41.00
2023-05-06T04:55:00.909Z,37.50
2023-05-06T04:55:33.356Z,42.80
2023-05-06T04:56:05.860Z,44.00
2023-05-06T04:56:38.354Z,63.50
2023-05-06T04:57:10.791Z,64.50
2023-05-06T04:57:43.293Z,33.40
2023-05-06T04:58:15.722Z,39.50
2023-05-06T04:58:48.190Z,45.10
2023-05-06T04:59:20.649Z,45.70
2023-05-06T04:59:53.143Z,59.40
2023-05-06T05:00:25.693Z,63.00
2023-05-06T05:00:58.236Z,61.10
2023-05-06T05:01:30.684Z,51.10
2023-05-06T05:02:03.147Z,39.50
2023-05-06T05:02:35.657Z,45.90
2023-05-06T05:03:08.232Z,59.00
2023-05-06T05:03:40.583Z,46.80
2023-05-06T05:04:13.094Z,54.10
2023-05-06T05:04:45.558Z,68.80
2023-05-06T05:05:18.006Z,84.20
2023-05-06T05:05:50.448Z,83.80
2023-05-06T05:06:22.942Z,57.70
2023-05-06T05:06:55.397Z,36.90
2023-05-06T05:07:27.888Z,38.90
2023-05-06T05:08:00.453Z,47.50
2023-05-06T05:08:32.910Z,52.10
2023-05-06T05:09:05.417Z,51.50
2023-05-06T05:09:37.906Z,75.80
2023-05-06T05:10:10.444Z,64.30
2023-05-06T05:10:42.863Z,79.30
2023-05-06T05:11:15.316Z,77.30
2023-05-06T05:11:47.796Z,44.80
2023-05-06T05:12:20.325Z,45.40
2023-05-06T05:12:52.861Z,48.90
2023-05-06T05:13:25.282Z,51.00
2023-05-06T05:13:58.378Z,45.60
2023-05-06T05:14:30.209Z,42.80
2023-05-06T05:15:02.711Z,134.20
2023-05-06T05:15:35.158Z,64.90
2023-05-06T05:16:07.648Z,39.90
2023-05-06T05:16:40.162Z,46.40
2023-05-06T05:17:12.551Z,49.60
2023-05-06T05:17:45.029Z,52.10
2023-05-06T05:18:17.472Z,47.40
2023-05-06T05:18:49.933Z,39.90
2023-05-06T05:19:22.436Z,46.00
2023-05-06T05:19:54.937Z,57.00
2023-05-06T05:20:27.446Z,65.20
2023-05-06T05:20:59.873Z,74.30
2023-05-06T05:21:32.344Z,68.90
2023-05-06T05:22:04.815Z,45.20
2023-05-06T05:22:37.309Z,37.70
2023-05-06T05:23:09.764Z,34.70
2023-05-06T05:23:42.215Z,45.50
2023-05-06T05:24:14.675Z,40.30
2023-05-06T05:24:47.152Z,36.50
2023-05-06T05:25:19.630Z,45.40
2023-05-06T05:25:52.092Z,43.90
2023-05-06T05:26:32.107Z,40.20
2023-05-06T05:27:04.578Z,54.70
2023-05-06T05:27:37.029Z,57.50
2023-05-06T05:28:09.517Z,60.30
2023-05-06T05:28:41.993Z,66.00
2023-05-06T05:29:14.483Z,75.90
2023-05-06T05:29:46.937Z,104.60
2023-05-06T05:30:19.390Z,84.40
2023-05-06T05:30:51.930Z,62.50
2023-05-06T05:31:24.384Z,56.70
2023-05-06T05:31:56.752Z,51.10
2023-05-06T05:32:29.350Z,51.60
2023-05-06T05:33:01.830Z,58.80
2023-05-06T05:33:34.208Z,55.70
2023-05-06T05:34:06.643Z,76.80
2023-05-06T05:34:39.092Z,70.80
2023-05-06T05:35:11.899Z,63.70
2023-05-06T05:35:44.008Z,69.70
2023-05-06T05:36:16.478Z,56.60
2023-05-06T05:36:49.000Z,57.40
2023-05-06T05:37:21.520Z,66.50
2023-05-06T05:37:53.941Z,73.00
2023-05-06T05:38:26.379Z,77.10
2023-05-06T05:38:58.831Z,64.40
2023-05-06T05:39:31.302Z,51.60
2023-05-06T05:40:03.765Z,64.80
2023-05-06T05:40:36.222Z,81.00
2023-05-06T05:41:17.269Z,91.80
2023-05-06T05:41:48.241Z,91.70
2023-05-06T05:42:20.691Z,75.40
2023-05-06T05:42:53.179Z,64.20
2023-05-06T05:43:25.608Z,43.00
2023-05-06T05:43:58.128Z,39.60
2023-05-06T05:44:30.633Z,49.80
2023-05-06T05:45:03.131Z,68.20
2023-05-06T05:45:35.661Z,65.60
2023-05-06T05:46:08.167Z,55.60
2023-05-06T05:46:40.680Z,52.60
2023-05-06T05:47:13.186Z,59.70
2023-05-06T05:47:45.711Z,48.70
2023-05-06T05:48:18.266Z,33.40
2023-05-06T05:48:50.808Z,48.50
2023-05-06T05:49:23.275Z,124.40
2023-05-06T05:49:55.754Z,120.00
2023-05-06T05:50:28.207Z,89.40
2023-05-06T05:51:00.701Z,81.00
2023-05-06T05:51:33.322Z,91.50
2023-05-06T05:52:05.901Z,103.70
2023-05-06T05:52:38.383Z,102.60
2023-05-06T05:53:10.911Z,74.90
2023-05-06T05:53:43.364Z,69.00
2023-05-06T05:54:15.888Z,87.70
2023-05-06T05:54:48.463Z,105.00
2023-05-06T05:55:20.895Z,94.80
2023-05-06T05:55:54.136Z,91.60
2023-05-06T05:56:25.889Z,67.80
2023-05-06T05:56:58.527Z,57.50
2023-05-06T05:57:31.053Z,80.60
2023-05-06T05:58:03.571Z,77.50
2023-05-06T05:58:36.082Z,58.80
2023-05-06T05:59:08.686Z,77.40
2023-05-06T05:59:41.297Z,79.10
2023-05-06T06:00:13.898Z,58.70
2023-05-06T06:00:46.341Z,61.90
2023-05-06T06:01:18.823Z,75.80
2023-05-06T06:01:51.358Z,60.00
2023-05-06T06:02:23.840Z,42.50
2023-05-06T06:02:56.410Z,59.50
2023-05-06T06:03:28.936Z,63.00
2023-05-06T06:04:01.543Z,56.40
2023-05-06T06:04:33.921Z,59.30
2023-05-06T06:05:06.340Z,50.10
2023-05-06T06:05:38.947Z,42.20
2023-05-06T06:06:11.427Z,51.70
2023-05-06T06:06:44.033Z,46.50
2023-05-06T06:07:16.511Z,46.10
2023-05-06T06:07:49.087Z,39.80
2023-05-06T06:08:21.647Z,52.70
2023-05-06T06:08:54.158Z,71.00
2023-05-06T06:09:26.725Z,79.20
2023-05-06T06:09:59.237Z,79.80
2023-05-06T06:10:31.734Z,89.40
2023-05-06T06:11:04.197Z,99.60
2023-05-06T06:11:36.678Z,78.00
2023-05-06T06:12:09.188Z,61.90
2023-05-06T06:12:41.697Z,63.50
2023-05-06T06:13:14.251Z,56.70
2023-05-06T06:13:46.690Z,61.80
2023-05-06T06:14:19.256Z,63.60
2023-05-06T06:14:51.822Z,69.00
2023-05-06T06:15:24.357Z,62.10
2023-05-06T06:15:56.849Z,65.90
2023-05-06T06:16:29.354Z,63.20
2023-05-06T06:17:01.792Z,58.90
2023-05-06T06:17:34.334Z,63.50
2023-05-06T06:18:07.021Z,55.50
2023-05-06T06:18:39.433Z,69.00
2023-05-06T06:19:11.937Z,83.30
2023-05-06T06:19:44.414Z,76.20
2023-05-06T06:20:16.939Z,57.20
2023-05-06T06:20:50.438Z,68.00
2023-05-06T06:21:22.059Z,99.70
2023-05-06T06:21:54.672Z,124.50
2023-05-06T06:22:27.176Z,128.20
2023-05-06T06:22:59.697Z,116.00
2023-05-06T06:23:32.284Z,123.80
2023-05-06T06:24:04.843Z,131.50
2023-05-06T06:24:37.356Z,120.90
2023-05-06T06:25:10.214Z,97.30
2023-05-06T06:25:42.568Z,75.70
2023-05-06T06:26:15.090Z,60.90
2023-05-06T06:26:47.622Z,49.70
2023-05-06T06:27:20.165Z,63.90
2023-05-06T06:27:52.719Z,74.90
2023-05-06T06:28:25.211Z,90.60
2023-05-06T06:28:57.760Z,80.10
2023-05-06T06:29:30.247Z,95.10
2023-05-06T06:30:02.747Z,78.60
2023-05-06T06:30:35.260Z,62.70
2023-05-06T06:31:07.785Z,55.70
2023-05-06T06:31:40.816Z,76.50
2023-05-06T06:32:12.899Z,88.80
2023-05-06T06:32:45.297Z,62.20
2023-05-06T06:33:17.778Z,55.30
2023-05-06T06:33:50.257Z,62.70
2023-05-06T06:34:22.863Z,61.70
2023-05-06T06:34:55.399Z,61.40
2023-05-06T06:35:27.907Z,54.30
2023-05-06T06:36:00.415Z,46.80
2023-05-06T06:36:32.944Z,49.40
2023-05-06T06:37:07.355Z,49.30
2023-05-06T06:37:38.004Z,57.40
2023-05-06T06:38:10.546Z,65.30
2023-05-06T06:38:43.064Z,61.40
2023-05-06T06:39:15.611Z,60.50
2023-05-06T06:39:48.247Z,74.70
2023-05-06T06:40:20.736Z,80.60
2023-05-06T06:40:53.262Z,74.30
2023-05-06T06:41:25.761Z,74.20
2023-05-06T06:41:58.266Z,73.20
2023-05-06T06:42:30.798Z,86.40
2023-05-06T06:43:03.266Z,95.60
2023-05-06T06:43:35.713Z,73.70
2023-05-06T06:44:08.272Z,59.80
2023-05-06T06:44:40.742Z,77.00
2023-05-06T06:45:13.285Z,81.90
2023-05-06T06:45:45.699Z,53.00
2023-05-06T06:46:18.260Z,51.10
2023-05-06T06:46:50.735Z,59.70
2023-05-06T06:47:23.410Z,70.10
2023-05-06T06:47:55.790Z,69.60
2023-05-06T06:48:28.263Z,57.60
2023-05-06T06:49:00.819Z,45.30
2023-05-06T06:49:33.341Z,38.40
2023-05-06T06:50:05.826Z,46.10
2023-05-06T06:50:38.326Z,52.20
2023-05-06T06:51:10.832Z,56.00
2023-05-06T06:51:43.331Z,46.70
2023-05-06T06:52:15.793Z,50.50
2023-05-06T06:52:48.356Z,49.10
2023-05-06T06:53:20.912Z,50.20
2023-05-06T06:53:53.387Z,53.40
2023-05-06T06:54:25.864Z,52.00
2023-05-06T06:54:58.439Z,44.10
2023-05-06T06:55:30.958Z,38.60
2023-05-06T06:56:03.478Z,34.80
2023-05-06T06:56:35.997Z,43.50
2023-05-06T06:57:08.568Z,45.50
2023-05-06T06:57:41.067Z,40.20
2023-05-06T06:58:13.561Z,42.10
2023-05-06T06:58:46.036Z,53.90